Time;durP1;ratioP1;P1;durP2;ratioP2;P2;SDS_P1;SDS_P2;PMS_P1;PMS_P2;Temp;Humidity;BMP_temperature;BMP_pressure;BME280_temperature;BME280_humidity;BME280_pressure;Samples;Min_cycle;Max_cycle;Signal;HPM_P1;HPM_P2
2022/03/13 00:00:11;;;;;;;71.43;20.92;;;0.30;47.90;;;;;;4789535;29;20063;-76
2022/03/13 00:02:44;;;;;;;60.35;19.00;;;1.10;48.70;;;;;;4776584;30;20061;-75
2022/03/13 00:05:16;;;;;;;62.33;18.75;;;1.10;48.60;;;;;;4774183;30;20134;-76
2022/03/13 00:07:45;;;;;;;67.53;19.48;;;0.50;48.40;;;;;;4786345;29;20054;-75
2022/03/13 00:10:17;;;;;;;58.53;19.40;;;1.00;49.50;;;;;;4767385;29;21959;-75
2022/03/13 00:12:48;;;;;;;60.13;19.35;;;1.00;49.30;;;;;;4799077;29;20069;-76
2022/03/13 00:15:26;;;;;;;65.47;20.85;;;1.10;48.90;;;;;;4809507;29;20676;-76
2022/03/13 00:17:53;;;;;;;67.47;20.65;;;1.10;49.00;;;;;;4808181;29;20068;-76
2022/03/13 00:20:22;;;;;;;64.53;20.40;;;1.00;49.60;;;;;;4805823;29;20596;-75
2022/03/13 00:22:49;;;;;;;64.15;21.58;;;0.40;49.60;;;;;;4803491;29;20463;-76
2022/03/13 00:25:17;;;;;;;75.65;21.48;;;0.90;50.50;;;;;;4803606;29;20579;-75
2022/03/13 00:27:44;;;;;;;77.88;23.70;;;0.80;51.10;;;;;;4791002;29;20042;-75
2022/03/13 00:30:12;;;;;;;67.35;21.50;;;0.10;50.60;;;;;;4789163;29;20059;-77
2022/03/13 00:32:41;;;;;;;64.15;22.00;;;0.80;50.60;;;;;;4808730;29;20045;-76
2022/03/13 00:35:10;;;;;;;59.47;20.15;;;0.80;50.60;;;;;;4801156;29;20073;-76
2022/03/13 00:37:38;;;;;;;69.82;20.83;;;0.90;51.10;;;;;;4792425;29;20053;-76
2022/03/13 00:40:06;;;;;;;70.95;21.17;;;0.80;50.90;;;;;;4808350;29;20050;-77
2022/03/13 00:42:34;;;;;;;63.50;19.80;;;0.80;50.30;;;;;;4792185;29;20042;-76
2022/03/13 00:45:04;;;;;;;68.97;20.63;;;0.80;50.90;;;;;;4778386;29;20059;-76
2022/03/13 00:47:32;;;;;;;62.58;20.77;;;0.80;50.50;;;;;;4791940;29;20529;-76
2022/03/13 00:49:59;;;;;;;68.45;20.15;;;0.90;50.00;;;;;;4809403;29;20139;-76
2022/03/13 00:52:26;;;;;;;52.05;21.20;;;0.80;50.50;;;;;;4790054;29;20055;-76
2022/03/13 00:54:55;;;;;;;63.08;19.67;;;0.80;50.80;;;;;;4807044;29;20135;-76
2022/03/13 00:57:23;;;;;;;56.30;20.05;;;0.60;51.20;;;;;;4811400;29;20077;-76
2022/03/13 00:59:50;;;;;;;60.80;19.83;;;0.60;52.10;;;;;;4795282;29;20525;-76
2022/03/13 01:02:18;;;;;;;64.50;19.95;;;0.80;51.50;;;;;;4794921;29;20070;-76
2022/03/13 01:04:50;;;;;;;67.55;20.60;;;0.50;51.90;;;;;;4813702;29;22993;-76
2022/03/13 01:07:17;;;;;;;60.75;18.75;;;0.50;51.60;;;;;;4794426;29;20061;-76
2022/03/13 01:09:45;;;;;;;57.10;19.40;;;0.30;51.70;;;;;;4794252;29;20057;-75
2022/03/13 01:12:12;;;;;;;68.43;20.90;;;0.30;53.10;;;;;;4809492;29;20058;-76
2022/03/13 01:14:40;;;;;;;65.95;20.48;;;0.50;51.90;;;;;;4810896;29;20057;-76
2022/03/13 01:17:09;;;;;;;64.00;18.83;;;0.50;51.90;;;;;;4792582;29;20038;-76
2022/03/13 01:19:39;;;;;;;62.70;20.17;;;0.60;52.50;;;;;;4808578;29;20137;-76
2022/03/13 01:22:12;;;;;;;59.58;18.30;;;0.60;51.90;;;;;;4811491;29;20406;-76
2022/03/13 01:24:46;;;;;;;54.05;17.75;;;0.20;51.40;;;;;;4825530;29;20057;-77
2022/03/13 01:27:15;;;;;;;65.57;17.42;;;0.50;51.90;;;;;;4814522;29;20065;-76
2022/03/13 01:29:44;;;;;;;49.83;17.27;;;0.50;52.70;;;;;;4814048;29;20054;-76
2022/03/13 01:32:16;;;;;;;55.53;17.58;;;0.40;52.50;;;;;;4794218;29;20071;-75
2022/03/13 01:34:46;;;;;;;57.67;19.30;;;0.40;52.50;;;;;;4811101;29;20499;-76
2022/03/13 01:37:33;;;;;;;55.88;18.50;;;0.40;52.50;;;;;;4813660;29;20054;-76
2022/03/13 01:40:11;;;;;;;50.38;16.58;;;0.40;52.10;;;;;;4793641;29;20561;-76
2022/03/13 01:42:40;;;;;;;53.03;17.90;;;0.40;52.00;;;;;;4792205;29;20057;-76
2022/03/13 01:45:11;;;;;;;51.22;18.42;;;0.40;52.50;;;;;;4796011;29;20054;-76
2022/03/13 01:47:39;;;;;;;54.67;17.55;;;0.10;52.50;;;;;;4797581;29;20147;-76
2022/03/13 01:50:09;;;;;;;51.33;17.63;;;1.40;54.10;;;;;;4792393;29;20050;-76
2022/03/13 01:52:39;;;;;;;49.25;16.50;;;0.10;53.40;;;;;;4792469;29;20058;-76
2022/03/13 01:55:07;;;;;;;54.40;16.02;;;0.20;54.10;;;;;;4825172;29;20034;-76
2022/03/13 01:57:37;;;;;;;45.88;17.85;;;0.70;54.30;;;;;;4813216;29;20175;-75
2022/03/13 02:00:07;;;;;;;50.40;17.85;;;0.10;54.10;;;;;;4795619;29;20169;-75
2022/03/13 02:02:53;;;;;;;48.95;16.42;;;0.20;53.50;;;;;;4801510;29;20043;-75
2022/03/13 02:05:32;;;;;;;63.08;18.88;;;0.20;53.80;;;;;;4793201;29;20532;-76
2022/03/13 02:08:00;;;;;;;51.70;17.27;;;0.80;53.60;;;;;;4807915;29;20054;-76
2022/03/13 02:10:30;;;;;;;47.72;16.27;;;-0.10;53.60;;;;;;4810551;29;20443;-76
2022/03/13 02:12:58;;;;;;;44.13;16.77;;;-0.10;54.10;;;;;;4808356;29;20718;-76
2022/03/13 02:15:31;;;;;;;49.85;17.23;;;-0.10;54.40;;;;;;4795022;29;20054;-76
2022/03/13 02:18:03;;;;;;;52.08;16.90;;;-0.10;54.80;;;;;;4808741;29;20050;-76
2022/03/13 02:20:38;;;;;;;50.10;17.25;;;0.00;54.60;;;;;;4779716;29;20051;-76
2022/03/13 02:23:19;;;;;;;42.85;15.60;;;-0.10;54.60;;;;;;4794236;29;20047;-76
2022/03/13 02:26:06;;;;;;;47.72;17.60;;;-0.10;54.70;;;;;;4795203;29;20149;-76
2022/03/13 02:28:36;;;;;;;50.60;16.42;;;0.00;54.60;;;;;;4795846;29;20055;-76
2022/03/13 02:31:06;;;;;;;39.67;15.85;;;0.00;54.30;;;;;;4824993;29;20050;-76
2022/03/13 02:33:34;;;;;;;59.05;19.08;;;0.10;53.90;;;;;;4811347;29;21316;-75
2022/03/13 02:36:05;;;;;;;49.83;17.52;;;0.20;54.30;;;;;;4795557;29;20050;-76
2022/03/13 02:38:33;;;;;;;50.75;15.95;;;0.80;54.20;;;;;;4794951;29;20522;-76
2022/03/13 02:41:00;;;;;;;51.67;17.13;;;0.00;54.30;;;;;;4792539;29;20047;-77
2022/03/13 02:43:28;;;;;;;47.38;16.63;;;0.50;54.50;;;;;;4812471;29;20054;-76
2022/03/13 02:45:55;;;;;;;48.35;16.55;;;0.20;53.90;;;;;;4810126;29;20062;-75
2022/03/13 02:48:23;;;;;;;41.38;14.82;;;0.00;53.80;;;;;;4808368;29;20050;-75
2022/03/13 02:50:51;;;;;;;48.63;15.10;;;-0.30;54.70;;;;;;4791325;29;21961;-76
2022/03/13 02:53:18;;;;;;;42.55;14.95;;;-0.20;54.60;;;;;;4810060;29;20056;-76
2022/03/13 02:55:45;;;;;;;49.17;15.35;;;-0.20;54.90;;;;;;4809441;29;20499;-76
2022/03/13 02:58:13;;;;;;;50.67;16.25;;;-0.10;54.30;;;;;;4794411;29;20054;-76
2022/03/13 03:00:52;;;;;;;55.35;16.25;;;-0.10;53.90;;;;;;4809661;29;20074;-76
2022/03/13 03:03:21;;;;;;;46.03;15.43;;;-1.00;53.80;;;;;;4809605;29;20339;-75
2022/03/13 03:05:49;;;;;;;40.50;15.05;;;-0.40;55.40;;;;;;4793311;29;21496;-76
2022/03/13 03:08:17;;;;;;;51.90;15.98;;;-0.30;55.70;;;;;;4795140;29;20542;-75
2022/03/13 03:10:45;;;;;;;48.08;15.55;;;-0.20;55.40;;;;;;4810110;29;20050;-76
2022/03/13 03:13:15;;;;;;;47.30;15.05;;;-0.10;55.40;;;;;;4810301;29;20073;-76
2022/03/13 03:15:43;;;;;;;45.35;15.18;;;-0.10;54.40;;;;;;4809309;29;20518;-76
2022/03/13 03:18:10;;;;;;;46.55;16.55;;;0.30;55.40;;;;;;4810707;29;20042;-76
2022/03/13 03:20:39;;;;;;;54.03;16.85;;;0.00;54.70;;;;;;4792351;29;20038;-76
2022/03/13 03:23:07;;;;;;;43.45;14.27;;;-0.30;54.50;;;;;;4810174;29;20092;-76
2022/03/13 03:25:34;;;;;;;42.42;14.57;;;-1.50;56.40;;;;;;4792688;29;20081;-75
2022/03/13 03:28:02;;;;;;;44.53;16.02;;;-0.80;57.30;;;;;;4806343;29;20058;-76
2022/03/13 03:30:30;;;;;;;48.80;14.80;;;-2.00;56.80;;;;;;4808736;29;20050;-76
2022/03/13 03:33:02;;;;;;;52.83;15.48;;;-0.60;56.50;;;;;;4810350;29;20146;-76
2022/03/13 03:35:31;;;;;;;47.80;14.07;;;-0.40;56.10;;;;;;4796246;29;20085;-76
2022/03/13 03:37:59;;;;;;;43.60;15.45;;;-0.50;55.90;;;;;;4809012;29;20053;-77
2022/03/13 03:40:29;;;;;;;44.33;15.40;;;-0.40;55.70;;;;;;4809828;29;20041;-75
2022/03/13 03:42:58;;;;;;;56.53;16.48;;;-0.50;56.00;;;;;;4810047;29;20042;-76
2022/03/13 03:45:27;;;;;;;36.45;14.68;;;-1.50;55.90;;;;;;4808260;29;20510;-76
2022/03/13 03:47:55;;;;;;;40.55;14.93;;;-0.50;56.30;;;;;;4824268;29;20418;-76
2022/03/13 03:50:22;;;;;;;41.75;15.27;;;-0.50;57.20;;;;;;4810794;29;20518;-75
2022/03/13 03:52:54;;;;;;;53.45;15.35;;;-0.40;56.50;;;;;;4809139;29;20057;-77
2022/03/13 03:55:22;;;;;;;49.33;14.50;;;-0.30;56.00;;;;;;4792908;29;20045;-76
2022/03/13 03:57:50;;;;;;;50.20;16.63;;;0.30;55.80;;;;;;4795717;29;20043;-75
2022/03/13 04:00:18;;;;;;;37.33;14.55;;;-0.20;55.50;;;;;;4807663;29;20421;-77
2022/03/13 04:02:46;;;;;;;41.80;15.85;;;0.40;55.30;;;;;;4791373;29;20050;-75
2022/03/13 04:05:13;;;;;;;46.88;14.48;;;-0.50;55.70;;;;;;4811747;29;20081;-76
2022/03/13 04:07:40;;;;;;;55.38;14.55;;;-0.50;56.00;;;;;;4792069;29;20061;-76
2022/03/13 04:10:12;;;;;;;55.45;15.25;;;-0.50;56.10;;;;;;4810914;29;20541;-76
2022/03/13 04:12:40;;;;;;;43.60;15.75;;;-0.50;56.30;;;;;;4792842;29;20510;-76
2022/03/13 04:15:07;;;;;;;58.72;17.20;;;0.60;58.00;;;;;;4823221;29;20895;-76
2022/03/13 04:17:35;;;;;;;43.03;14.07;;;-0.50;56.60;;;;;;4808625;29;20080;-76
2022/03/13 04:20:03;;;;;;;48.83;15.63;;;-0.40;57.20;;;;;;4792662;29;20050;-76
2022/03/13 04:22:31;;;;;;;50.35;14.98;;;-0.40;56.70;;;;;;4791358;29;20058;-76
2022/03/13 04:24:58;;;;;;;48.22;15.30;;;-0.50;56.60;;;;;;4793968;29;20050;-75
2022/03/13 04:27:26;;;;;;;49.15;14.60;;;-0.60;57.00;;;;;;4791268;29;20058;-76
2022/03/13 04:29:53;;;;;;;44.55;13.65;;;-0.60;57.10;;;;;;4793784;29;20046;-76
2022/03/13 04:32:23;;;;;;;49.35;16.23;;;-0.70;57.30;;;;;;4794498;29;20058;-76
2022/03/13 04:34:50;;;;;;;46.25;14.55;;;-0.70;57.20;;;;;;4781891;29;20051;-76
2022/03/13 04:37:18;;;;;;;41.88;13.57;;;-0.80;57.10;;;;;;4796077;29;20126;-76
2022/03/13 04:39:47;;;;;;;39.95;13.10;;;-0.90;58.20;;;;;;4810945;29;20047;-75
2022/03/13 04:42:15;;;;;;;49.25;13.20;;;-0.70;57.00;;;;;;4811789;29;20051;-75
2022/03/13 04:44:43;;;;;;;47.35;15.30;;;-0.80;57.70;;;;;;4781224;29;20054;-77
2022/03/13 04:47:11;;;;;;;43.13;14.20;;;-0.70;56.50;;;;;;4799454;29;20046;-78
2022/03/13 04:49:38;;;;;;;47.47;14.65;;;-0.80;56.70;;;;;;4797849;29;20074;-77
2022/03/13 04:52:05;;;;;;;51.63;15.38;;;-0.80;57.10;;;;;;4811612;29;20454;-76
2022/03/13 04:54:32;;;;;;;43.20;14.27;;;-0.90;57.70;;;;;;4794456;29;20054;-77
2022/03/13 04:56:59;;;;;;;40.53;15.65;;;-0.90;57.00;;;;;;4810561;29;20519;-76
2022/03/13 04:59:26;;;;;;;42.72;14.70;;;-0.80;56.90;;;;;;4810845;29;20050;-77
2022/03/13 05:01:54;;;;;;;53.92;14.27;;;-0.70;57.30;;;;;;4796424;29;20522;-77
2022/03/13 05:04:21;;;;;;;35.63;14.02;;;-0.60;56.50;;;;;;4815539;29;20750;-77
2022/03/13 05:06:48;;;;;;;38.42;14.35;;;-0.70;56.60;;;;;;4795428;29;20050;-77
2022/03/13 05:09:15;;;;;;;45.95;14.52;;;-0.70;56.80;;;;;;4811925;29;20058;-77
2022/03/13 05:11:42;;;;;;;48.22;15.30;;;-0.80;57.10;;;;;;4811034;29;20059;-77
2022/03/13 05:14:09;;;;;;;39.58;14.50;;;-0.90;57.50;;;;;;4795972;29;20058;-77
2022/03/13 05:16:37;;;;;;;44.03;14.00;;;-1.00;57.50;;;;;;4811953;29;20091;-77
2022/03/13 05:19:06;;;;;;;41.92;13.90;;;-1.10;58.50;;;;;;4811243;29;20928;-76
2022/03/13 05:21:41;;;;;;;42.08;13.27;;;-1.00;58.00;;;;;;4799747;29;20491;-77
2022/03/13 05:24:08;;;;;;;46.08;13.93;;;-1.10;58.50;;;;;;4812333;29;20061;-77
2022/03/13 05:26:35;;;;;;;41.08;13.88;;;-1.10;57.90;;;;;;4797121;29;20050;-78
2022/03/13 05:29:02;;;;;;;39.67;13.00;;;-1.00;57.50;;;;;;4824647;29;20047;-77
2022/03/13 05:31:30;;;;;;;43.88;14.90;;;-0.90;57.80;;;;;;4812921;29;20998;-77
2022/03/13 05:33:57;;;;;;;46.35;14.75;;;-0.80;57.60;;;;;;4795118;29;20042;-76
2022/03/13 05:36:24;;;;;;;53.40;14.90;;;-0.70;57.30;;;;;;4794531;29;20050;-77
2022/03/13 05:38:51;;;;;;;53.22;16.15;;;-0.80;57.30;;;;;;4796000;29;20876;-77
2022/03/13 05:41:22;;;;;;;56.55;18.77;;;-0.70;57.40;;;;;;4810472;29;20605;-77
2022/03/13 05:43:50;;;;;;;51.58;17.80;;;-0.80;57.40;;;;;;4810780;29;20074;-77
2022/03/13 05:46:17;;;;;;;64.20;19.90;;;-0.90;58.20;;;;;;4795795;29;20077;-77
2022/03/13 05:48:45;;;;;;;57.58;17.67;;;-0.90;58.00;;;;;;4809393;29;20054;-76
2022/03/13 05:51:16;;;;;;;60.90;20.65;;;-0.80;57.80;;;;;;4780262;29;20510;-79
2022/03/13 05:53:44;;;;;;;60.85;19.95;;;-0.60;57.70;;;;;;4794715;29;20061;-77
2022/03/13 05:56:11;;;;;;;59.47;20.85;;;-0.50;57.20;;;;;;4824449;29;20078;-76
2022/03/13 05:58:39;;;;;;;56.45;20.67;;;-0.30;56.80;;;;;;4795856;29;20070;-77
2022/03/13 06:01:08;;;;;;;62.35;19.73;;;-0.20;56.50;;;;;;4811789;29;22354;-76
2022/03/13 06:03:37;;;;;;;56.00;20.75;;;-0.10;56.10;;;;;;4792538;29;20050;-76
2022/03/13 06:06:05;;;;;;;63.42;20.63;;;0.00;55.40;;;;;;4794800;29;20058;-76
2022/03/13 06:08:35;;;;;;;65.57;23.42;;;0.00;55.20;;;;;;4793941;29;20054;-76
2022/03/13 06:11:03;;;;;;;89.82;27.30;;;0.10;54.90;;;;;;4824725;29;20160;-77
2022/03/13 06:13:30;;;;;;;116.35;35.25;;;0.10;54.90;;;;;;4791209;29;20057;-76
2022/03/13 06:16:00;;;;;;;129.55;38.67;;;0.30;54.70;;;;;;4808226;29;20061;-77
2022/03/13 06:18:27;;;;;;;110.13;34.13;;;0.40;54.00;;;;;;4809785;29;20074;-76
2022/03/13 06:20:55;;;;;;;105.30;35.58;;;0.40;53.70;;;;;;4807632;29;20487;-76
2022/03/13 06:23:22;;;;;;;74.50;28.92;;;0.60;52.90;;;;;;4795206;29;20050;-76
2022/03/13 06:25:50;;;;;;;69.20;23.85;;;0.70;52.40;;;;;;4793828;29;20506;-76
2022/03/13 06:28:19;;;;;;;70.82;22.98;;;0.80;52.70;;;;;;4794631;29;20052;-76
2022/03/13 06:30:46;;;;;;;56.72;22.17;;;0.80;52.70;;;;;;4794134;29;20061;-77
2022/03/13 06:33:13;;;;;;;56.30;21.30;;;1.00;52.60;;;;;;4809369;29;20145;-76
2022/03/13 06:35:40;;;;;;;55.30;20.45;;;1.10;51.80;;;;;;4794842;29;20042;-77
2022/03/13 06:38:07;;;;;;;48.47;18.42;;;1.30;51.40;;;;;;4810438;29;20042;-76
2022/03/13 06:40:35;;;;;;;43.97;17.55;;;1.40;51.30;;;;;;4808829;29;20462;-77
2022/03/13 06:43:02;;;;;;;53.72;18.73;;;1.50;50.60;;;;;;4810369;29;20365;-76
2022/03/13 06:45:29;;;;;;;48.42;18.85;;;1.60;50.00;;;;;;4779773;29;21510;-77
2022/03/13 06:47:56;;;;;;;53.95;19.17;;;1.60;49.20;;;;;;4795642;29;20047;-76
2022/03/13 06:50:23;;;;;;;49.60;18.13;;;1.80;49.30;;;;;;4810793;29;20057;-76
2022/03/13 06:52:53;;;;;;;49.90;18.20;;;1.80;48.90;;;;;;4808178;29;20100;-76
2022/03/13 06:55:22;;;;;;;50.40;19.08;;;1.90;48.90;;;;;;4793685;29;20111;-76
2022/03/13 06:57:50;;;;;;;57.85;20.70;;;2.00;48.90;;;;;;4787737;29;20054;-77
2022/03/13 07:00:19;;;;;;;48.75;17.10;;;2.00;48.20;;;;;;4774311;29;20104;-77
2022/03/13 07:02:54;;;;;;;38.33;15.93;;;2.10;47.60;;;;;;4772270;29;22468;-76
2022/03/13 07:05:23;;;;;;;45.55;16.13;;;2.20;47.20;;;;;;4786568;29;22425;-76
2022/03/13 07:07:54;;;;;;;33.75;12.73;;;2.30;47.20;;;;;;4773433;29;20058;-76
2022/03/13 07:10:21;;;;;;;31.95;14.00;;;2.50;46.00;;;;;;4773645;29;20172;-77
2022/03/13 07:12:53;;;;;;;28.50;12.25;;;2.40;46.30;;;;;;4771671;29;20165;-77
2022/03/13 07:15:21;;;;;;;34.50;12.85;;;2.70;45.80;;;;;;4786997;29;20640;-76
2022/03/13 07:17:48;;;;;;;35.40;14.70;;;2.60;45.60;;;;;;4771911;29;20184;-76
2022/03/13 07:20:15;;;;;;;28.98;12.30;;;2.90;46.10;;;;;;4764696;29;20050;-76
2022/03/13 07:22:46;;;;;;;21.45;10.07;;;3.10;45.50;;;;;;4786114;29;20142;-76
2022/03/13 07:25:14;;;;;;;24.02;9.80;;;3.20;45.40;;;;;;4771808;29;20121;-77
2022/03/13 07:27:41;;;;;;;17.92;8.50;;;3.30;45.80;;;;;;4789442;29;20046;-77
2022/03/13 07:30:12;;;;;;;19.70;8.80;;;3.30;45.10;;;;;;4771466;29;20062;-78
2022/03/13 07:32:43;;;;;;;18.98;7.65;;;3.40;45.10;;;;;;4772080;29;20055;-77
2022/03/13 07:35:12;;;;;;;19.88;8.18;;;3.40;45.30;;;;;;4786436;29;20058;-76
2022/03/13 07:37:42;;;;;;;28.83;9.27;;;3.60;45.30;;;;;;4772734;29;20566;-77
2022/03/13 07:40:10;;;;;;;21.83;8.98;;;3.70;44.60;;;;;;4786967;29;20108;-76
2022/03/13 07:42:37;;;;;;;24.60;8.20;;;3.80;44.30;;;;;;4789462;29;20133;-77
2022/03/13 07:45:09;;;;;;;19.88;8.43;;;3.90;44.50;;;;;;4802403;29;22507;-76
2022/03/13 07:47:36;;;;;;;21.98;9.60;;;3.90;45.30;;;;;;4785593;29;20077;-77
2022/03/13 07:50:05;;;;;;;20.17;8.57;;;4.00;44.90;;;;;;4786477;29;20057;-77
2022/03/13 07:52:32;;;;;;;19.17;8.07;;;4.10;44.90;;;;;;4785250;29;21069;-77
2022/03/13 07:54:59;;;;;;;20.45;8.02;;;4.20;44.70;;;;;;4787295;29;20190;-76
2022/03/13 07:57:28;;;;;;;21.17;8.55;;;4.30;44.70;;;;;;4802158;29;20194;-76
2022/03/13 07:59:56;;;;;;;18.35;8.32;;;4.50;43.60;;;;;;4787304;29;20054;-76
2022/03/13 08:02:23;;;;;;;18.05;8.32;;;4.60;43.30;;;;;;4771537;29;20145;-76
2022/03/13 08:04:51;;;;;;;19.65;8.57;;;4.90;42.60;;;;;;4771494;29;20084;-76
2022/03/13 08:07:18;;;;;;;24.75;8.75;;;5.00;41.10;;;;;;4789842;29;20054;-77
2022/03/13 08:09:46;;;;;;;22.38;9.80;;;5.20;40.70;;;;;;4769984;29;20054;-76
2022/03/13 08:12:13;;;;;;;20.70;7.80;;;5.20;41.30;;;;;;4802188;29;20062;-77
2022/03/13 08:14:40;;;;;;;20.92;7.97;;;5.30;41.20;;;;;;4800281;29;20059;-78
2022/03/13 08:17:07;;;;;;;14.20;5.32;;;5.50;40.10;;;;;;4770612;29;20110;-77
2022/03/13 08:19:34;;;;;;;11.55;4.57;;;5.70;38.10;;;;;;4788550;29;21074;-77
2022/03/13 08:22:01;;;;;;;13.75;5.03;;;5.70;36.30;;;;;;4786936;29;20046;-77
2022/03/13 08:24:29;;;;;;;14.35;6.03;;;5.70;36.50;;;;;;4770758;29;20234;-77
2022/03/13 08:26:56;;;;;;;17.05;6.13;;;5.90;36.80;;;;;;4756498;29;20111;-78
2022/03/13 08:29:28;;;;;;;10.55;4.85;;;6.00;36.80;;;;;;4786113;29;20054;-79
2022/03/13 08:31:55;;;;;;;10.68;4.45;;;6.00;37.90;;;;;;4786433;29;20054;-79
2022/03/13 08:34:23;;;;;;;14.18;5.25;;;6.10;38.80;;;;;;4769027;29;20062;-77
2022/03/13 08:36:51;;;;;;;11.20;4.72;;;6.20;38.10;;;;;;4787534;29;20575;-77
2022/03/13 08:39:19;;;;;;;8.40;4.07;;;6.50;36.50;;;;;;4772673;29;20143;-76
2022/03/13 08:41:46;;;;;;;8.40;3.70;;;6.80;34.90;;;;;;4788797;29;22603;-74
2022/03/13 08:44:14;;;;;;;10.02;4.93;;;6.90;35.20;;;;;;4772688;29;20133;-76
2022/03/13 08:46:41;;;;;;;8.73;4.30;;;6.90;34.20;;;;;;4803386;29;21012;-75
2022/03/13 08:49:09;;;;;;;6.43;1.98;;;7.00;33.40;;;;;;4772063;29;20050;-75
2022/03/13 08:51:36;;;;;;;6.20;2.70;;;7.00;32.00;;;;;;4783924;29;20054;-76
2022/03/13 08:54:03;;;;;;;7.68;3.33;;;7.10;32.30;;;;;;4786759;29;20058;-74
2022/03/13 08:56:31;;;;;;;9.07;2.80;;;7.30;32.20;;;;;;4788629;29;20047;-76
2022/03/13 08:58:58;;;;;;;9.90;3.78;;;7.40;32.20;;;;;;4800731;29;20050;-75
2022/03/13 09:01:26;;;;;;;9.55;2.97;;;7.50;32.20;;;;;;4785982;29;20058;-75
2022/03/13 09:03:55;;;;;;;9.55;3.25;;;7.60;33.30;;;;;;4772966;29;20572;-75
2022/03/13 09:06:23;;;;;;;13.75;5.15;;;7.80;33.00;;;;;;4786718;29;20077;-75
2022/03/13 09:08:50;;;;;;;11.55;4.82;;;7.80;31.40;;;;;;4787926;29;20924;-76
2022/03/13 09:11:18;;;;;;;9.18;3.75;;;7.80;31.90;;;;;;4786729;29;20058;-76
2022/03/13 09:13:46;;;;;;;11.95;3.45;;;8.00;31.80;;;;;;4768815;29;20058;-76
2022/03/13 09:16:13;;;;;;;6.80;2.97;;;8.20;31.60;;;;;;4787605;29;20051;-75
2022/03/13 09:18:40;;;;;;;6.20;3.63;;;8.20;31.90;;;;;;4788935;29;20054;-77
2022/03/13 09:21:08;;;;;;;6.88;3.47;;;8.40;30.70;;;;;;4790338;29;24897;-75
2022/03/13 09:23:36;;;;;;;10.15;4.45;;;8.40;30.40;;;;;;4789025;29;20084;-76
2022/03/13 09:26:04;;;;;;;7.38;2.85;;;8.40;30.90;;;;;;4791433;29;20066;-76
2022/03/13 09:28:31;;;;;;;7.05;2.70;;;8.50;30.30;;;;;;4806430;29;22331;-78
2022/03/13 09:30:59;;;;;;;8.45;3.20;;;8.40;30.50;;;;;;4793118;29;20800;-79
2022/03/13 09:33:27;;;;;;;5.63;2.58;;;8.50;31.20;;;;;;4764937;29;20054;-78
2022/03/13 09:35:54;;;;;;;6.97;2.95;;;8.60;30.00;;;;;;4775615;29;20077;-78
2022/03/13 09:38:24;;;;;;;21.00;11.27;;;8.60;30.10;;;;;;4791710;29;20054;-78
2022/03/13 09:40:52;;;;;;;9.90;4.45;;;8.70;29.80;;;;;;4789107;29;20058;-78
2022/03/13 09:43:19;;;;;;;8.90;3.47;;;8.70;30.70;;;;;;4791934;29;20148;-78
2022/03/13 09:45:47;;;;;;;16.42;7.30;;;8.50;30.70;;;;;;4793926;29;20104;-78
2022/03/13 09:48:18;;;;;;;14.27;5.15;;;8.70;30.40;;;;;;4793062;29;20054;-79
2022/03/13 09:50:46;;;;;;;9.48;4.05;;;8.90;30.30;;;;;;4804549;29;20070;-78
2022/03/13 09:53:14;;;;;;;10.40;4.40;;;9.00;30.00;;;;;;4785332;29;20051;-78
2022/03/13 09:55:41;;;;;;;26.55;10.15;;;8.90;30.20;;;;;;4793378;29;20100;-78
2022/03/13 09:58:09;;;;;;;10.05;4.57;;;9.10;30.00;;;;;;4778484;29;20053;-78
2022/03/13 10:00:36;;;;;;;8.27;4.03;;;9.10;29.90;;;;;;4776158;29;20058;-78
2022/03/13 10:03:08;;;;;;;7.25;3.20;;;9.00;29.80;;;;;;4793846;29;20681;-78
2022/03/13 10:05:46;;;;;;;7.63;2.78;;;8.90;29.10;;;;;;4805904;29;20843;-78
2022/03/13 10:08:15;;;;;;;11.35;2.85;;;9.00;29.20;;;;;;4775963;29;20046;-78
2022/03/13 10:10:46;;;;;;;5.95;2.72;;;9.20;28.70;;;;;;4753498;29;20084;-77
2022/03/13 10:13:33;;;;;;;7.85;3.28;;;9.20;28.60;;;;;;4787030;29;20113;-78
2022/03/13 10:16:01;;;;;;;7.93;3.30;;;9.50;28.90;;;;;;4803075;29;20517;-78
2022/03/13 10:18:32;;;;;;;6.05;2.40;;;9.40;28.60;;;;;;4773643;29;20243;-78
2022/03/13 10:21:11;;;;;;;5.07;2.63;;;9.50;28.50;;;;;;4777886;29;20928;-78
2022/03/13 10:23:39;;;;;;;7.00;2.55;;;9.50;28.30;;;;;;4787168;29;22561;-79
2022/03/13 10:26:07;;;;;;;7.78;2.78;;;9.70;28.80;;;;;;4756360;29;20111;-78
2022/03/13 10:28:37;;;;;;;6.95;3.25;;;9.70;28.00;;;;;;4770364;29;20172;-78
2022/03/13 10:31:16;;;;;;;9.32;3.38;;;9.80;28.00;;;;;;4771639;29;20139;-78
2022/03/13 10:34:02;;;;;;;8.13;3.63;;;10.00;28.50;;;;;;4773630;29;20061;-79
2022/03/13 10:36:34;;;;;;;7.57;3.03;;;10.10;29.30;;;;;;4785764;29;20133;-78
2022/03/13 10:39:04;;;;;;;5.95;2.97;;;10.30;28.60;;;;;;4792097;29;20117;-78
2022/03/13 10:41:47;;;;;;;6.85;2.97;;;10.30;28.90;;;;;;4757431;29;20141;-79
2022/03/13 10:44:17;;;;;;;5.38;2.75;;;10.50;28.10;;;;;;4772391;29;20743;-79
2022/03/13 10:46:53;;;;;;;6.75;3.25;;;10.50;28.20;;;;;;4773942;29;20053;-78
2022/03/13 10:49:42;;;;;;;5.82;3.42;;;10.40;28.00;;;;;;4761065;29;20141;-79
2022/03/13 10:52:25;;;;;;;11.40;3.15;;;10.40;28.90;;;;;;4775115;29;20086;-79
2022/03/13 10:54:54;;;;;;;7.05;2.75;;;10.50;28.70;;;;;;4772566;29;22877;-79
2022/03/13 10:57:22;;;;;;;7.07;3.00;;;10.80;28.60;;;;;;4785060;29;20158;-80
2022/03/13 11:00:12;;;;;;;6.63;3.13;;;10.70;28.20;;;;;;4771948;29;20099;-79
2022/03/13 11:02:40;;;;;;;6.00;2.40;;;10.90;28.40;;;;;;4771592;29;20062;-81
2022/03/13 11:05:08;;;;;;;7.38;3.72;;;11.10;28.20;;;;;;4768681;29;20523;-77
2022/03/13 11:07:35;;;;;;;9.00;4.20;;;11.20;27.60;;;;;;4787688;29;20713;-77
2022/03/13 11:10:05;;;;;;;7.85;3.72;;;11.20;28.20;;;;;;4772966;29;20055;-78
2022/03/13 11:12:33;;;;;;;10.45;3.45;;;11.20;27.40;;;;;;4757472;29;20205;-78
2022/03/13 11:15:00;;;;;;;8.05;3.10;;;11.10;27.90;;;;;;4756884;30;20086;-79
2022/03/13 11:17:30;;;;;;;7.20;2.90;;;11.30;28.00;;;;;;4757716;30;20051;-77
2022/03/13 11:20:09;;;;;;;6.78;3.58;;;11.20;27.90;;;;;;4770597;29;20854;-79
2022/03/13 11:22:36;;;;;;;12.60;3.83;;;11.10;28.00;;;;;;4771011;29;20055;-78
2022/03/13 11:25:06;;;;;;;7.97;3.53;;;11.10;28.30;;;;;;4755391;30;22452;-77
2022/03/13 11:27:36;;;;;;;5.93;2.90;;;11.40;27.60;;;;;;4737577;29;20557;-79
2022/03/13 11:30:06;;;;;;;5.75;3.05;;;11.60;28.10;;;;;;4751827;29;20110;-78
2022/03/13 11:32:42;;;;;;;6.50;3.10;;;11.80;28.30;;;;;;4752376;29;20074;-79
2022/03/13 11:35:13;;;;;;;4.50;2.75;;;12.00;27.90;;;;;;4753169;29;20079;-78
2022/03/13 11:37:54;;;;;;;5.32;2.55;;;12.10;27.00;;;;;;4776539;29;20047;-79
2022/03/13 11:40:48;;;;;;;6.45;3.25;;;12.10;27.10;;;;;;4751724;29;20059;-77
2022/03/13 11:43:21;;;;;;;5.28;2.42;;;12.20;27.30;;;;;;4734781;29;20063;-79
2022/03/13 11:45:53;;;;;;;7.13;2.88;;;12.20;27.10;;;;;;4751446;30;20047;-78
2022/03/13 11:48:24;;;;;;;7.13;3.10;;;12.30;26.80;;;;;;4767925;29;20055;-77
2022/03/13 11:50:58;;;;;;;7.72;3.40;;;12.30;26.50;;;;;;4767719;29;20074;-77
2022/03/13 11:53:31;;;;;;;6.90;2.85;;;12.40;27.10;;;;;;4781860;29;20059;-78
2022/03/13 11:56:27;;;;;;;8.45;3.63;;;12.40;27.00;;;;;;4765138;29;21039;-78
2022/03/13 11:59:18;;;;;;;8.63;2.92;;;12.40;26.90;;;;;;4737654;30;20115;-78
2022/03/13 12:01:48;;;;;;;7.63;3.03;;;12.40;27.10;;;;;;4755460;29;20861;-78
2022/03/13 12:04:16;;;;;;;8.35;3.35;;;12.50;26.30;;;;;;4785607;29;20138;-79
2022/03/13 12:06:47;;;;;;;7.80;2.88;;;12.50;26.60;;;;;;4754712;29;20055;-78
2022/03/13 12:09:17;;;;;;;7.82;2.80;;;12.70;27.00;;;;;;4753121;30;20436;-77
2022/03/13 12:11:58;;;;;;;6.65;2.95;;;12.80;26.70;;;;;;4787528;29;20062;-77
2022/03/13 12:14:51;;;;;;;6.57;2.90;;;12.80;25.90;;;;;;4789233;29;20914;-78
2022/03/13 12:17:20;;;;;;;6.68;3.10;;;12.80;25.90;;;;;;4789950;29;21166;-77
2022/03/13 12:19:47;;;;;;;11.68;4.85;;;12.80;26.30;;;;;;4805095;29;20133;-77
2022/03/13 12:22:15;;;;;;;8.27;3.38;;;12.80;26.20;;;;;;4775339;29;20054;-77
2022/03/13 12:24:51;;;;;;;5.53;2.78;;;12.90;26.50;;;;;;4786127;29;20062;-78
2022/03/13 12:27:19;;;;;;;6.07;2.70;;;12.90;26.00;;;;;;4789541;29;20057;-77
2022/03/13 12:29:55;;;;;;;7.57;3.15;;;13.00;26.60;;;;;;4793044;29;20078;-79
2022/03/13 12:32:33;;;;;;;6.70;3.22;;;12.90;26.50;;;;;;4774639;29;20117;-78
2022/03/13 12:35:05;;;;;;;8.75;4.15;;;12.80;27.20;;;;;;4777223;29;20588;-79
2022/03/13 12:37:32;;;;;;;6.10;2.35;;;12.90;26.90;;;;;;4791532;29;20203;-78
2022/03/13 12:40:02;;;;;;;7.80;3.13;;;13.10;26.60;;;;;;4775235;29;20062;-78
2022/03/13 12:42:34;;;;;;;4.93;2.45;;;13.10;26.90;;;;;;4789802;29;22716;-79
2022/03/13 12:45:12;;;;;;;7.60;3.72;;;13.10;26.00;;;;;;4777336;29;20055;-76
2022/03/13 12:47:47;;;;;;;7.82;2.45;;;12.90;26.60;;;;;;4805370;29;20066;-78
2022/03/13 12:50:17;;;;;;;4.70;1.92;;;12.80;26.30;;;;;;4773387;29;22224;-77